Time;durP1;ratioP1;P1;durP2;ratioP2;P2;SDS_P1;SDS_P2;PMS_P1;PMS_P2;Temp;Humidity;BMP_temperature;BMP_pressure;BME280_temperature;BME280_humidity;BME280_pressure;Samples;Min_cycle;Max_cycle;Signal;HPM_P1;HPM_P2
2022/02/27 00:00:45;;;;;;;12.20;5.67;;;1.70;99.90;;;;;;5031651;28;20269;-67
2022/02/27 00:03:10;;;;;;;13.37;4.20;;;1.60;99.90;;;;;;5031616;28;20229;-68
2022/02/27 00:05:36;;;;;;;8.80;5.77;;;1.70;99.90;;;;;;5031126;28;20224;-68
2022/02/27 00:08:01;;;;;;;13.27;5.13;;;1.60;99.90;;;;;;5031756;28;20269;-68
2022/02/27 00:10:27;;;;;;;12.13;5.23;;;1.60;99.90;;;;;;5031407;28;20671;-68
2022/02/27 00:12:53;;;;;;;6.97;4.23;;;1.60;99.90;;;;;;5031153;28;20194;-68
2022/02/27 00:15:18;;;;;;;8.17;4.20;;;1.50;99.90;;;;;;5031107;28;20177;-68
2022/02/27 00:17:44;;;;;;;10.10;4.50;;;1.40;99.90;;;;;;5031037;28;20221;-68
2022/02/27 00:20:10;;;;;;;6.60;4.97;;;1.40;99.90;;;;;;5031664;28;20220;-68
2022/02/27 00:22:37;;;;;;;10.33;4.97;;;1.40;99.90;;;;;;5033087;28;20181;-68
2022/02/27 00:25:04;;;;;;;7.90;3.47;;;1.30;99.90;;;;;;5035217;28;20439;-68
2022/02/27 00:27:29;;;;;;;8.43;4.27;;;1.30;99.90;;;;;;5035386;28;20451;-68
2022/02/27 00:29:55;;;;;;;9.30;4.10;;;1.20;99.90;;;;;;5035640;28;20460;-68
2022/02/27 00:32:20;;;;;;;7.27;4.10;;;1.10;99.90;;;;;;5035505;28;20185;-68
2022/02/27 00:34:46;;;;;;;8.60;4.43;;;1.20;99.90;;;;;;5035159;28;20210;-68
2022/02/27 00:37:12;;;;;;;8.80;4.60;;;1.30;99.90;;;;;;5035293;28;20171;-68
2022/02/27 00:39:38;;;;;;;7.00;4.20;;;1.30;99.90;;;;;;5035290;28;20206;-68
2022/02/27 00:42:04;;;;;;;8.33;3.93;;;1.30;99.90;;;;;;5035247;28;20471;-68
2022/02/27 00:44:30;;;;;;;5.40;3.47;;;1.30;99.90;;;;;;5035023;28;21000;-68
2022/02/27 00:46:55;;;;;;;4.43;3.20;;;1.20;99.90;;;;;;5034938;28;20433;-67
2022/02/27 00:49:21;;;;;;;6.00;3.80;;;1.20;99.90;;;;;;5035187;28;20241;-68
2022/02/27 00:51:46;;;;;;;9.10;3.57;;;1.20;99.90;;;;;;5035287;28;20185;-67
2022/02/27 00:54:13;;;;;;;6.50;3.93;;;1.20;99.90;;;;;;5034793;28;20576;-68
2022/02/27 00:56:39;;;;;;;15.30;5.23;;;1.10;99.90;;;;;;5034404;28;20181;-68
2022/02/27 00:59:04;;;;;;;8.40;3.50;;;1.10;99.90;;;;;;5034296;28;20444;-68
2022/02/27 01:01:30;;;;;;;7.40;4.23;;;1.10;99.90;;;;;;5046018;28;20186;-68
2022/02/27 01:03:56;;;;;;;8.07;3.77;;;1.10;99.90;;;;;;5035252;28;20301;-68
2022/02/27 01:06:23;;;;;;;6.30;3.47;;;1.10;99.90;;;;;;5033113;28;20209;-68
2022/02/27 01:08:48;;;;;;;7.00;3.43;;;1.10;99.90;;;;;;5034302;28;20440;-68
2022/02/27 01:11:14;;;;;;;6.80;2.70;;;1.10;99.90;;;;;;5034757;28;20505;-68
2022/02/27 01:13:39;;;;;;;7.43;3.50;;;1.10;99.90;;;;;;5034537;28;20205;-68
2022/02/27 01:16:06;;;;;;;9.90;3.73;;;1.10;99.90;;;;;;5044995;28;20179;-67
2022/02/27 01:18:32;;;;;;;7.17;3.70;;;1.10;99.90;;;;;;5034389;28;20182;-68
2022/02/27 01:20:58;;;;;;;9.73;4.60;;;1.10;99.90;;;;;;5034508;28;20447;-68
2022/02/27 01:23:24;;;;;;;10.10;3.40;;;1.00;99.90;;;;;;5033201;28;20989;-68
2022/02/27 01:25:49;;;;;;;6.60;3.80;;;1.00;99.90;;;;;;5032859;28;20671;-68
2022/02/27 01:28:15;;;;;;;5.30;3.27;;;0.90;99.90;;;;;;5034355;28;20613;-69
2022/02/27 01:30:40;;;;;;;10.63;4.60;;;0.90;99.90;;;;;;5034522;28;20660;-68
2022/02/27 01:33:06;;;;;;;7.97;3.93;;;1.00;99.90;;;;;;5033659;28;20198;-68
2022/02/27 01:35:32;;;;;;;11.80;5.23;;;1.00;99.90;;;;;;5033086;28;20190;-68
2022/02/27 01:37:57;;;;;;;6.93;3.80;;;1.10;99.90;;;;;;5034370;28;20245;-68
2022/02/27 01:40:23;;;;;;;9.33;3.33;;;1.10;99.90;;;;;;5034295;28;20256;-68
2022/02/27 01:42:49;;;;;;;8.37;3.43;;;1.10;99.90;;;;;;5034117;28;20229;-68
2022/02/27 01:45:15;;;;;;;5.37;3.33;;;1.20;99.90;;;;;;5033934;28;20977;-68
2022/02/27 01:47:40;;;;;;;12.53;4.33;;;1.10;99.90;;;;;;5016215;28;20210;-68
2022/02/27 01:50:08;;;;;;;7.20;3.77;;;1.20;99.90;;;;;;5033751;28;20279;-68
2022/02/27 01:52:34;;;;;;;7.67;3.73;;;1.10;99.90;;;;;;5043208;28;20213;-68
2022/02/27 01:55:00;;;;;;;3.90;3.37;;;1.10;99.90;;;;;;5033661;28;20461;-68
2022/02/27 01:57:26;;;;;;;5.17;3.10;;;1.10;99.90;;;;;;5033386;28;20436;-68
2022/02/27 01:59:52;;;;;;;9.27;2.97;;;1.10;99.90;;;;;;5033621;28;20436;-68
2022/02/27 02:02:18;;;;;;;7.77;3.57;;;1.10;99.90;;;;;;5033472;28;20506;-68
2022/02/27 02:04:44;;;;;;;3.33;3.03;;;1.10;99.90;;;;;;5033380;28;20498;-68
2022/02/27 02:07:11;;;;;;;9.30;3.57;;;1.00;99.90;;;;;;5033435;28;20175;-68
2022/02/27 02:09:36;;;;;;;5.33;3.03;;;1.00;99.90;;;;;;5033192;28;20564;-68
2022/02/27 02:12:03;;;;;;;8.00;3.53;;;1.00;99.90;;;;;;5032915;28;20426;-68
2022/02/27 02:14:29;;;;;;;6.97;3.90;;;0.90;99.90;;;;;;5033059;28;20193;-68
2022/02/27 02:16:54;;;;;;;7.13;3.03;;;0.90;99.90;;;;;;5033101;28;20930;-68
2022/02/27 02:19:23;;;;;;;10.00;3.93;;;0.90;99.90;;;;;;5032981;28;20193;-68
2022/02/27 02:21:54;;;;;;;7.63;3.17;;;0.70;99.90;;;;;;5033098;28;20201;-68
2022/02/27 02:24:20;;;;;;;8.97;4.43;;;0.70;99.90;;;;;;5033112;28;20449;-68
2022/02/27 02:26:47;;;;;;;3.60;2.90;;;0.70;99.90;;;;;;5032532;28;20495;-68
2022/02/27 02:29:14;;;;;;;5.30;3.57;;;0.70;99.90;;;;;;5033147;28;20425;-68
2022/02/27 02:31:40;;;;;;;7.70;3.70;;;0.70;99.90;;;;;;5033495;28;20460;-68
2022/02/27 02:34:11;;;;;;;11.07;4.03;;;0.70;99.90;;;;;;5033001;28;20919;-68
2022/02/27 02:36:38;;;;;;;11.77;4.53;;;0.70;99.90;;;;;;5032906;28;21027;-68
2022/02/27 02:39:06;;;;;;;7.77;5.53;;;0.70;99.90;;;;;;5032464;28;20421;-68
2022/02/27 02:41:32;;;;;;;10.60;3.93;;;0.80;99.90;;;;;;5032728;28;20421;-68
2022/02/27 02:43:58;;;;;;;6.80;4.60;;;0.70;99.90;;;;;;5032692;28;20452;-68
2022/02/27 02:46:24;;;;;;;8.03;4.13;;;0.70;99.90;;;;;;5031821;28;20175;-68
2022/02/27 02:48:50;;;;;;;9.50;5.07;;;0.70;99.90;;;;;;5032709;28;20425;-68
2022/02/27 02:51:16;;;;;;;7.93;4.43;;;0.70;99.90;;;;;;5047615;28;20827;-68
2022/02/27 02:53:41;;;;;;;8.60;5.00;;;0.70;99.90;;;;;;5032449;28;20565;-68
2022/02/27 02:56:08;;;;;;;9.33;4.43;;;0.70;99.90;;;;;;5032439;28;20429;-68
2022/02/27 02:58:35;;;;;;;9.23;4.80;;;0.70;99.90;;;;;;5032458;28;20172;-68
2022/02/27 03:01:02;;;;;;;9.10;5.10;;;0.60;99.90;;;;;;5033338;28;20432;-68
2022/02/27 03:03:28;;;;;;;11.43;5.17;;;0.60;99.90;;;;;;5032324;28;20945;-68
2022/02/27 03:05:54;;;;;;;6.73;4.07;;;0.60;99.90;;;;;;5032179;28;20428;-67
2022/02/27 03:08:20;;;;;;;10.43;4.80;;;0.60;99.90;;;;;;5032415;28;20435;-68
2022/02/27 03:10:45;;;;;;;4.20;3.80;;;0.60;99.90;;;;;;5032238;28;20675;-68
2022/02/27 03:13:11;;;;;;;14.03;4.80;;;0.60;99.90;;;;;;5031950;28;20966;-68
2022/02/27 03:15:37;;;;;;;6.83;4.50;;;0.50;99.90;;;;;;5032003;28;20249;-68
2022/02/27 03:18:02;;;;;;;5.97;4.33;;;0.40;99.90;;;;;;5032033;28;20874;-68
2022/02/27 03:20:28;;;;;;;6.60;3.87;;;0.50;99.90;;;;;;5032230;28;20667;-68
2022/02/27 03:22:53;;;;;;;9.43;3.63;;;0.40;99.90;;;;;;5031827;28;20217;-68
2022/02/27 03:25:19;;;;;;;6.83;4.77;;;0.30;99.90;;;;;;5031597;28;20245;-68
2022/02/27 03:27:44;;;;;;;7.70;3.80;;;0.30;99.90;;;;;;5014494;28;20666;-68
2022/02/27 03:30:10;;;;;;;7.20;4.00;;;0.30;99.90;;;;;;5032302;28;20216;-68
2022/02/27 03:32:35;;;;;;;8.03;5.10;;;0.30;99.90;;;;;;5031964;28;20213;-68
2022/02/27 03:35:01;;;;;;;6.63;3.97;;;0.30;99.90;;;;;;5031549;28;20659;-67
2022/02/27 03:37:27;;;;;;;8.83;4.13;;;0.30;99.90;;;;;;5031613;28;20174;-68
2022/02/27 03:39:53;;;;;;;8.70;4.33;;;0.20;99.90;;;;;;5031660;28;20178;-68
2022/02/27 03:42:19;;;;;;;10.17;4.17;;;0.20;99.90;;;;;;5031888;28;20268;-68
2022/02/27 03:44:45;;;;;;;8.53;4.33;;;0.20;99.90;;;;;;5031188;28;20189;-68
2022/02/27 03:47:10;;;;;;;7.53;4.27;;;0.20;99.90;;;;;;5031861;28;20504;-68
2022/02/27 03:49:36;;;;;;;9.43;4.63;;;0.30;99.90;;;;;;5031977;28;20202;-68
2022/02/27 03:52:03;;;;;;;8.90;3.63;;;0.20;99.90;;;;;;5031481;28;20185;-67
2022/02/27 03:54:30;;;;;;;4.80;4.10;;;0.20;99.90;;;;;;5031478;28;20201;-68
2022/02/27 03:56:56;;;;;;;7.90;4.53;;;0.20;99.90;;;;;;5030823;28;20433;-68
2022/02/27 03:59:21;;;;;;;8.47;4.30;;;0.20;99.90;;;;;;5031441;28;20437;-68
2022/02/27 04:01:46;;;;;;;8.27;4.27;;;0.10;99.90;;;;;;5031243;28;20182;-68
2022/02/27 04:04:12;;;;;;;13.87;4.73;;;0.10;99.90;;;;;;5031591;28;20208;-68
2022/02/27 04:06:38;;;;;;;6.40;3.57;;;0.10;99.90;;;;;;5030969;28;20179;-68
2022/02/27 04:09:03;;;;;;;10.03;4.27;;;0.20;99.90;;;;;;5031669;28;20178;-68
2022/02/27 04:11:29;;;;;;;9.90;4.33;;;0.00;99.90;;;;;;5031215;28;20721;-68
2022/02/27 04:13:54;;;;;;;6.93;4.10;;;0.10;99.90;;;;;;5031507;28;20236;-68
2022/02/27 04:16:20;;;;;;;7.97;4.57;;;0.00;99.90;;;;;;5030848;28;20182;-68
2022/02/27 04:18:45;;;;;;;7.60;4.40;;;0.00;99.90;;;;;;5031481;28;20171;-68
2022/02/27 04:21:11;;;;;;;5.10;3.40;;;-0.10;99.90;;;;;;5031116;28;20205;-68
2022/02/27 04:23:37;;;;;;;11.97;4.80;;;-0.10;99.90;;;;;;5031353;28;20202;-68
2022/02/27 04:26:02;;;;;;;10.30;4.40;;;-0.10;99.90;;;;;;5030348;28;20186;-68
2022/02/27 04:28:28;;;;;;;9.80;4.57;;;0.00;99.90;;;;;;5031414;28;20174;-68
2022/02/27 04:30:53;;;;;;;13.73;5.00;;;-0.10;99.90;;;;;;5031165;28;20206;-68
2022/02/27 04:33:19;;;;;;;8.40;4.50;;;0.00;99.90;;;;;;5031888;28;20201;-69
2022/02/27 04:35:44;;;;;;;8.77;3.93;;;-0.10;99.90;;;;;;5030724;28;20189;-70
2022/02/27 04:38:10;;;;;;;12.37;4.87;;;-0.10;99.90;;;;;;5030830;28;20186;-69
2022/02/27 04:40:36;;;;;;;12.80;3.90;;;-0.10;99.90;;;;;;5031238;28;20189;-70
2022/02/27 04:43:02;;;;;;;8.20;3.83;;;-0.20;99.90;;;;;;5031152;28;20224;-70
2022/02/27 04:45:28;;;;;;;7.23;4.23;;;-0.20;99.90;;;;;;5031000;28;20197;-69
2022/02/27 04:47:54;;;;;;;7.33;4.13;;;-0.20;99.90;;;;;;5030861;28;20452;-69
2022/02/27 04:50:19;;;;;;;8.47;4.83;;;-0.20;99.90;;;;;;5034700;28;20465;-69
2022/02/27 04:52:45;;;;;;;7.73;3.90;;;-0.30;99.90;;;;;;5035428;28;20185;-70
2022/02/27 04:55:11;;;;;;;10.00;4.37;;;-0.30;99.90;;;;;;5031185;28;20643;-70
2022/02/27 04:57:36;;;;;;;5.90;4.10;;;-0.30;99.90;;;;;;5030952;28;20822;-69
2022/02/27 05:00:06;;;;;;;9.37;5.73;;;-0.30;99.90;;;;;;5030919;28;20214;-70
2022/02/27 05:02:32;;;;;;;12.37;5.10;;;-0.40;99.90;;;;;;5030787;28;20236;-70
2022/02/27 05:04:58;;;;;;;9.70;4.43;;;-0.30;99.90;;;;;;5030661;28;20444;-69
2022/02/27 05:07:23;;;;;;;10.73;5.03;;;-0.40;99.90;;;;;;5030922;28;20489;-69
2022/02/27 05:09:49;;;;;;;6.60;4.17;;;-0.30;99.90;;;;;;5034364;28;20567;-69
2022/02/27 05:12:14;;;;;;;6.63;4.20;;;-0.30;99.90;;;;;;5034194;28;20185;-70
2022/02/27 05:14:40;;;;;;;9.03;4.40;;;-0.30;99.90;;;;;;5033801;28;20289;-70
2022/02/27 05:17:05;;;;;;;8.67;5.70;;;-0.50;99.90;;;;;;5033961;28;20540;-70
2022/02/27 05:19:31;;;;;;;8.00;3.80;;;-0.50;99.90;;;;;;5033749;28;20224;-70
2022/02/27 05:21:56;;;;;;;8.50;4.60;;;-0.50;99.90;;;;;;5034561;28;20182;-70
2022/02/27 05:24:22;;;;;;;14.17;5.57;;;-0.50;99.90;;;;;;5034004;28;20683;-70
2022/02/27 05:26:47;;;;;;;8.93;4.73;;;-0.50;99.90;;;;;;5033749;28;20177;-71
2022/02/27 05:29:13;;;;;;;6.50;5.40;;;-0.50;99.90;;;;;;5034582;28;20220;-70
2022/02/27 05:31:40;;;;;;;11.93;5.10;;;-0.50;99.90;;;;;;5034399;28;20600;-70
2022/02/27 05:34:06;;;;;;;9.77;5.40;;;-0.50;99.90;;;;;;5033872;28;20210;-70
2022/02/27 05:36:32;;;;;;;15.17;9.10;;;-0.60;99.90;;;;;;5033979;28;20451;-70
2022/02/27 05:38:57;;;;;;;13.40;9.03;;;-0.60;99.90;;;;;;5034790;28;20421;-69
2022/02/27 05:41:23;;;;;;;9.17;5.73;;;-0.50;99.90;;;;;;5032967;28;20182;-69
2022/02/27 05:43:48;;;;;;;7.27;5.33;;;-0.50;99.90;;;;;;5040817;28;20565;-70
2022/02/27 05:46:14;;;;;;;10.20;5.63;;;-0.50;99.90;;;;;;5034096;28;20278;-69
2022/02/27 05:48:39;;;;;;;14.80;5.77;;;-0.60;99.90;;;;;;5033699;28;20181;-69
2022/02/27 05:51:05;;;;;;;9.73;4.87;;;-0.60;99.90;;;;;;5034020;28;20232;-69
2022/02/27 05:53:31;;;;;;;8.00;4.93;;;-0.60;99.90;;;;;;5033945;28;20198;-70
2022/02/27 05:55:57;;;;;;;6.93;5.10;;;-0.50;99.90;;;;;;5033693;28;20594;-70
2022/02/27 05:58:26;;;;;;;9.00;5.20;;;-0.50;99.90;;;;;;5033991;28;20170;-70
2022/02/27 06:00:51;;;;;;;5.90;4.90;;;-0.50;99.90;;;;;;5034138;28;20946;-70
2022/02/27 06:03:20;;;;;;;6.73;5.17;;;-0.60;99.90;;;;;;5033948;28;20464;-70
2022/02/27 06:05:45;;;;;;;8.17;5.13;;;-0.60;99.90;;;;;;5033602;28;20268;-70
2022/02/27 06:08:11;;;;;;;8.30;5.00;;;-0.60;99.90;;;;;;5033415;28;20977;-71
2022/02/27 06:10:37;;;;;;;9.90;5.20;;;-0.60;99.90;;;;;;5015947;28;20229;-70
2022/02/27 06:13:03;;;;;;;8.03;5.07;;;-0.60;99.90;;;;;;5033731;28;20457;-70
2022/02/27 06:15:28;;;;;;;8.53;4.80;;;-0.60;99.90;;;;;;5033400;28;20170;-69
2022/02/27 06:17:54;;;;;;;11.33;5.80;;;-0.60;99.90;;;;;;5032846;28;20170;-71
2022/02/27 06:20:19;;;;;;;12.93;5.37;;;-0.60;99.90;;;;;;5032888;28;20265;-70
2022/02/27 06:22:47;;;;;;;13.17;6.37;;;-0.60;99.90;;;;;;5032985;28;20201;-69
2022/02/27 06:25:14;;;;;;;13.53;5.30;;;-0.60;99.90;;;;;;5032556;28;20217;-70
2022/02/27 06:27:43;;;;;;;6.83;4.50;;;-0.60;99.90;;;;;;5033400;28;20469;-70
2022/02/27 06:30:20;;;;;;;10.80;6.10;;;-0.60;99.90;;;;;;5033343;28;20503;-70
2022/02/27 06:32:47;;;;;;;7.47;5.70;;;-0.60;99.90;;;;;;5028711;28;20455;-69
2022/02/27 06:35:14;;;;;;;12.37;5.93;;;-0.60;99.90;;;;;;5033065;28;20472;-69
2022/02/27 06:37:40;;;;;;;10.23;5.40;;;-0.60;99.90;;;;;;5032846;28;20508;-70
2022/02/27 06:40:08;;;;;;;15.50;6.30;;;-0.50;99.90;;;;;;5033100;28;20880;-70
2022/02/27 06:42:33;;;;;;;8.30;6.20;;;-0.40;99.90;;;;;;5032704;28;20463;-70
2022/02/27 06:44:59;;;;;;;7.80;5.77;;;-0.20;99.90;;;;;;5032883;28;21052;-70
2022/02/27 06:47:24;;;;;;;12.30;6.87;;;0.00;99.90;;;;;;5033270;28;20233;-70
2022/02/27 06:49:50;;;;;;;10.80;5.53;;;0.20;99.90;;;;;;5032489;28;20583;-70
2022/02/27 06:52:16;;;;;;;10.93;5.97;;;0.40;99.90;;;;;;5027435;28;20174;-70
2022/02/27 06:54:42;;;;;;;9.60;5.87;;;0.60;99.90;;;;;;5032455;28;20457;-71
2022/02/27 06:57:07;;;;;;;8.50;5.40;;;0.80;99.90;;;;;;5032513;28;20179;-70
2022/02/27 06:59:33;;;;;;;9.03;5.70;;;1.00;99.90;;;;;;5032611;28;20182;-70
2022/02/27 07:01:58;;;;;;;6.97;4.70;;;1.20;99.90;;;;;;5041138;28;20181;-70
2022/02/27 07:04:24;;;;;;;10.93;5.43;;;1.40;99.90;;;;;;5037373;28;20202;-70
2022/02/27 07:06:50;;;;;;;10.63;5.10;;;1.60;99.90;;;;;;5031011;28;20182;-70
2022/02/27 07:09:15;;;;;;;8.07;5.30;;;1.90;99.90;;;;;;5032213;28;20193;-70
2022/02/27 07:11:44;;;;;;;8.97;5.67;;;2.00;99.90;;;;;;5033493;28;20516;-71
2022/02/27 07:14:10;;;;;;;14.07;6.90;;;2.10;99.90;;;;;;5031216;28;20578;-70
2022/02/27 07:16:37;;;;;;;10.33;5.80;;;2.30;99.90;;;;;;5032039;28;20451;-71
2022/02/27 07:19:04;;;;;;;14.03;7.47;;;2.40;99.90;;;;;;5032323;28;20460;-70
2022/02/27 07:21:30;;;;;;;9.67;5.17;;;2.70;99.90;;;;;;5032275;28;20510;-71
2022/02/27 07:23:56;;;;;;;12.30;6.63;;;2.90;99.90;;;;;;5032357;28;20453;-70
2022/02/27 07:26:22;;;;;;;9.33;6.30;;;3.10;99.90;;;;;;5030634;28;21001;-70
2022/02/27 07:28:47;;;;;;;9.40;6.23;;;3.20;99.90;;;;;;5032229;28;20530;-69
2022/02/27 07:31:13;;;;;;;10.67;6.77;;;3.40;99.90;;;;;;5031638;28;20220;-70
2022/02/27 07:33:38;;;;;;;8.00;5.30;;;3.50;99.90;;;;;;5031266;28;20287;-71
2022/02/27 07:36:04;;;;;;;9.53;6.10;;;3.60;99.90;;;;;;5031458;28;20614;-70
2022/02/27 07:38:30;;;;;;;14.37;8.13;;;3.80;99.90;;;;;;5032387;28;20186;-70
2022/02/27 07:40:55;;;;;;;13.00;7.37;;;4.00;99.90;;;;;;5031961;28;20193;-70
2022/02/27 07:43:21;;;;;;;14.87;6.30;;;4.30;99.90;;;;;;5030823;28;20682;-69
2022/02/27 07:45:46;;;;;;;15.10;7.27;;;4.40;99.90;;;;;;5031506;28;20332;-70
2022/02/27 07:48:13;;;;;;;11.93;6.67;;;4.50;99.90;;;;;;5031580;28;20597;-70
2022/02/27 07:50:39;;;;;;;10.13;6.80;;;4.70;99.90;;;;;;5031646;28;20202;-69
2022/02/27 07:53:05;;;;;;;12.40;7.50;;;4.90;99.90;;;;;;5031855;28;20452;-69
2022/02/27 07:55:30;;;;;;;10.50;6.40;;;5.20;99.90;;;;;;5031558;28;20670;-69
2022/02/27 07:57:56;;;;;;;13.23;7.70;;;5.40;99.90;;;;;;5031671;28;20437;-69
2022/02/27 08:00:22;;;;;;;10.10;8.50;;;5.50;99.90;;;;;;5029230;28;20263;-69
2022/02/27 08:02:47;;;;;;;7.67;6.87;;;5.60;99.90;;;;;;5016341;28;20182;-69
2022/02/27 08:05:13;;;;;;;13.70;8.83;;;5.60;99.90;;;;;;5031559;28;20245;-73
2022/02/27 08:07:39;;;;;;;7.87;6.40;;;5.70;99.90;;;;;;5037942;28;20240;-70
2022/02/27 08:10:05;;;;;;;9.33;6.23;;;5.90;99.90;;;;;;5031221;28;20562;-69
2022/02/27 08:12:31;;;;;;;8.03;6.37;;;6.00;99.90;;;;;;5030507;28;20189;-68
2022/02/27 08:14:57;;;;;;;10.40;7.00;;;5.70;99.90;;;;;;5024463;28;20445;-68
2022/02/27 08:17:23;;;;;;;6.60;5.60;;;6.10;99.90;;;;;;5025846;28;20449;-68
2022/02/27 08:19:49;;;;;;;10.40;6.33;;;6.20;99.90;;;;;;5027715;28;20495;-68
2022/02/27 08:22:15;;;;;;;7.27;6.53;;;6.50;99.90;;;;;;5028026;28;20186;-68
2022/02/27 08:24:41;;;;;;;10.70;6.40;;;6.80;99.90;;;;;;5028024;28;20215;-68
2022/02/27 08:27:07;;;;;;;9.40;7.20;;;6.80;99.90;;;;;;5027882;28;21160;-68
2022/02/27 08:29:32;;;;;;;8.23;6.57;;;6.80;99.90;;;;;;5025368;28;20514;-68
2022/02/27 08:31:58;;;;;;;11.10;7.00;;;6.90;99.90;;;;;;5005337;28;20445;-69
2022/02/27 08:34:27;;;;;;;10.77;6.23;;;7.10;99.90;;;;;;5019415;28;20695;-68
2022/02/27 08:36:55;;;;;;;15.20;7.07;;;7.40;99.90;;;;;;5030670;28;20170;-68
2022/02/27 08:39:20;;;;;;;9.03;5.93;;;7.00;99.90;;;;;;5030787;28;20421;-69
2022/02/27 08:41:46;;;;;;;7.00;6.20;;;7.20;99.90;;;;;;5030788;28;20445;-68
2022/02/27 08:44:11;;;;;;;12.60;6.93;;;7.10;99.90;;;;;;5033609;28;20205;-68
2022/02/27 08:46:38;;;;;;;8.30;5.60;;;6.90;99.90;;;;;;5034977;28;20179;-68
2022/02/27 08:49:06;;;;;;;9.13;6.13;;;7.10;99.90;;;;;;5035343;28;20174;-69
2022/02/27 08:51:32;;;;;;;9.30;7.13;;;7.60;99.90;;;;;;5034399;28;20884;-69
2022/02/27 08:53:57;;;;;;;8.43;6.63;;;7.80;99.90;;;;;;5034913;28;20479;-68
2022/02/27 08:56:23;;;;;;;8.33;6.40;;;8.60;99.90;;;;;;5034786;28;20429;-69
2022/02/27 08:58:49;;;;;;;7.53;6.20;;;8.70;99.90;;;;;;5037702;28;20243;-68
2022/02/27 09:01:14;;;;;;;7.40;6.70;;;8.40;99.90;;;;;;5034360;28;20264;-68
2022/02/27 09:03:40;;;;;;;7.13;6.00;;;8.20;99.90;;;;;;5034908;28;20209;-70
2022/02/27 09:06:05;;;;;;;9.23;7.43;;;8.60;99.90;;;;;;5034213;28;20554;-70
2022/02/27 09:08:31;;;;;;;7.20;6.50;;;9.20;99.90;;;;;;5034911;28;20556;-71
2022/02/27 09:10:57;;;;;;;9.60;6.40;;;9.40;99.90;;;;;;5033862;28;20206;-69
2022/02/27 09:13:22;;;;;;;8.80;6.50;;;9.90;99.90;;;;;;5033319;28;20455;-70
2022/02/27 09:15:48;;;;;;;9.73;6.13;;;10.80;99.90;;;;;;5033080;28;20178;-69
2022/02/27 09:18:14;;;;;;;7.70;6.90;;;10.30;99.90;;;;;;5033466;28;20503;-69
2022/02/27 09:20:39;;;;;;;7.53;6.33;;;10.50;99.90;;;;;;5029525;28;20198;-69
2022/02/27 09:23:05;;;;;;;8.27;6.17;;;10.50;99.90;;;;;;5033227;28;20202;-68
2022/02/27 09:25:30;;;;;;;11.10;7.10;;;11.50;99.90;;;;;;5033232;28;20610;-69
2022/02/27 09:27:56;;;;;;;9.27;7.83;;;11.80;99.70;;;;;;5033352;28;20193;-69
2022/02/27 09:30:21;;;;;;;11.70;6.67;;;12.30;98.20;;;;;;5033389;28;20273;-69
2022/02/27 09:32:47;;;;;;;7.60;6.70;;;12.40;96.80;;;;;;5033175;28;20178;-68
2022/02/27 09:35:13;;;;;;;7.03;5.63;;;11.70;96.90;;;;;;5032768;28;20186;-68
2022/02/27 09:37:38;;;;;;;9.10;6.57;;;11.20;97.30;;;;;;5033056;28;20253;-68
2022/02/27 09:40:05;;;;;;;7.43;6.73;;;11.60;96.60;;;;;;5031819;28;20174;-69
2022/02/27 09:42:32;;;;;;;7.30;5.90;;;11.50;96.60;;;;;;5030291;28;20438;-67
2022/02/27 09:44:59;;;;;;;6.90;5.67;;;11.50;95.80;;;;;;5033023;28;20190;-71
2022/02/27 09:47:25;;;;;;;7.00;5.93;;;12.00;94.10;;;;;;5033081;28;20808;-69
2022/02/27 09:49:51;;;;;;;5.80;5.30;;;11.50;94.40;;;;;;5032612;28;20464;-70
2022/02/27 09:52:18;;;;;;;7.03;6.00;;;10.40;95.40;;;;;;5032432;28;20972;-70
2022/02/27 09:54:45;;;;;;;5.73;5.13;;;10.40;96.20;;;;;;5032043;28;20217;-70
2022/02/27 09:57:18;;;;;;;5.03;4.63;;;11.30;93.90;;;;;;5032374;28;20854;-70
2022/02/27 09:59:43;;;;;;;5.27;4.40;;;12.10;92.60;;;;;;5031676;28;20436;-69
2022/02/27 10:02:09;;;;;;;6.67;4.60;;;12.00;89.50;;;;;;5032543;28;20444;-69
2022/02/27 10:04:40;;;;;;;4.17;3.77;;;12.20;89.20;;;;;;5032438;28;20194;-70
2022/02/27 10:07:10;;;;;;;4.67;4.13;;;11.10;89.90;;;;;;5032482;28;20179;-70
2022/02/27 10:09:36;;;;;;;9.33;4.77;;;10.60;90.60;;;;;;5032220;28;20514;-70
2022/02/27 10:12:22;;;;;;;5.10;4.60;;;11.50;89.90;;;;;;5032400;28;20444;-70
2022/02/27 10:15:03;;;;;;;5.70;4.60;;;11.90;90.40;;;;;;5031696;28;20503;-68
2022/02/27 10:17:36;;;;;;;5.40;4.60;;;11.30;88.70;;;;;;5031113;28;20490;-70
2022/02/27 10:20:08;;;;;;;7.10;4.73;;;12.30;90.50;;;;;;5032039;28;20441;-68
2022/02/27 10:22:36;;;;;;;6.37;4.10;;;14.00;84.20;;;;;;5032367;28;20522;-69
2022/02/27 10:25:08;;;;;;;4.10;3.70;;;13.20;80.60;;;;;;5031839;28;20439;-69
2022/02/27 10:27:40;;;;;;;6.60;4.90;;;12.10;80.40;;;;;;5032550;28;20457;-68
2022/02/27 10:30:21;;;;;;;4.60;4.10;;;11.30;84.80;;;;;;5032252;28;20475;-68
2022/02/27 10:33:05;;;;;;;5.10;4.03;;;11.20;86.80;;;;;;5030797;28;20443;-69
2022/02/27 10:35:36;;;;;;;4.57;4.13;;;11.40;83.50;;;;;;5030936;28;20429;-68
2022/02/27 10:38:02;;;;;;;4.97;4.57;;;11.60;85.50;;;;;;5032381;28;20508;-66
2022/02/27 10:40:33;;;;;;;5.00;4.50;;;12.50;84.00;;;;;;5031890;28;20503;-66
2022/02/27 10:43:00;;;;;;;5.00;4.60;;;13.50;79.60;;;;;;5032177;28;20925;-66
2022/02/27 10:45:26;;;;;;;4.87;4.43;;;13.60;77.50;;;;;;5032037;28;20432;-68
2022/02/27 10:48:02;;;;;;;6.20;4.80;;;13.60;76.70;;;;;;5033596;28;20436;-66
2022/02/27 10:50:28;;;;;;;4.57;4.10;;;14.20;77.60;;;;;;5032487;28;20521;-68
2022/02/27 10:52:53;;;;;;;4.90;4.30;;;14.70;71.70;;;;;;5015542;28;20536;-67
2022/02/27 10:55:19;;;;;;;5.30;4.57;;;15.90;59.60;;;;;;5034575;28;20452;-67
2022/02/27 10:57:50;;;;;;;5.20;3.80;;;16.60;62.80;;;;;;5033730;28;20261;-67
2022/02/27 11:00:27;;;;;;;3.70;3.50;;;16.80;59.90;;;;;;5034565;28;20228;-69
2022/02/27 11:03:13;;;;;;;4.20;3.90;;;16.80;54.60;;;;;;5034281;28;20587;-71
2022/02/27 11:05:41;;;;;;;4.33;3.70;;;17.90;51.00;;;;;;5032101;28;20938;-70
2022/02/27 11:08:09;;;;;;;4.07;3.70;;;18.60;49.60;;;;;;5032770;28;20815;-68
2022/02/27 11:10:37;;;;;;;4.47;3.93;;;16.20;48.40;;;;;;5032379;28;20461;-69
2022/02/27 11:13:10;;;;;;;4.17;3.77;;;16.70;50.60;;;;;;5020902;28;20810;-69
2022/02/27 11:15:37;;;;;;;4.67;3.63;;;16.60;48.30;;;;;;5031783;28;20425;-67
2022/02/27 11:18:04;;;;;;;5.90;3.93;;;16.90;47.80;;;;;;5032430;28;20439;-68
2022/02/27 11:20:30;;;;;;;4.90;4.33;;;16.20;48.10;;;;;;5032448;28;20436;-67
2022/02/27 11:22:57;;;;;;;4.43;4.03;;;15.90;48.60;;;;;;5031377;28;20501;-69
2022/02/27 11:25:24;;;;;;;5.23;4.73;;;16.30;48.40;;;;;;5031779;28;20185;-70
2022/02/27 11:27:55;;;;;;;4.43;4.03;;;16.70;46.70;;;;;;5021754;28;20922;-68
2022/02/27 11:30:23;;;;;;;4.67;3.40;;;16.80;46.40;;;;;;5032107;28;20464;-68
2022/02/27 11:32:55;;;;;;;3.77;3.47;;;16.80;46.10;;;;;;5031301;28;20539;-67
2022/02/27 11:35:32;;;;;;;3.50;3.20;;;17.80;46.20;;;;;;5030876;28;20817;-68
2022/02/27 11:37:58;;;;;;;3.90;3.57;;;18.70;44.90;;;;;;5038945;28;21118;-66
2022/02/27 11:40:30;;;;;;;4.73;4.30;;;19.00;44.30;;;;;;5032095;28;20429;-69
2022/02/27 11:42:57;;;;;;;5.00;4.13;;;17.70;44.40;;;;;;5031795;28;20576;-68
2022/02/27 11:45:55;;;;;;;4.10;3.70;;;17.30;45.90;;;;;;5015831;28;20941;-68
2022/02/27 11:48:58;;;;;;;4.73;3.90;;;18.20;45.00;;;;;;5024010;28;20945;-68
2022/02/27 11:51:39;;;;;;;5.70;5.20;;;18.00;44.20;;;;;;5030863;28;20456;-65
2022/02/27 11:54:06;;;;;;;7.90;5.00;;;17.90;44.90;;;;;;5031637;28;20981;-68
2022/02/27 11:56:31;;;;;;;4.60;4.20;;;16.50;46.10;;;;;;5030806;28;20516;-68
2022/02/27 11:58:57;;;;;;;4.60;4.20;;;16.90;46.50;;;;;;5031437;28;20870;-68
2022/02/27 12:01:47;;;;;;;5.17;4.57;;;17.10;45.60;;;;;;5031591;28;20186;-67
2022/02/27 12:04:19;;;;;;;4.93;4.53;;;18.30;45.90;;;;;;5031840;28;20230;-68
2022/02/27 12:07:11;;;;;;;4.57;4.17;;;19.20;43.30;;;;;;5043549;28;20428;-68
2022/02/27 12:09:49;;;;;;;5.20;4.60;;;19.60;41.50;;;;;;5020527;28;20553;-68
2022/02/27 12:12:36;;;;;;;4.90;4.50;;;19.00;42.00;;;;;;5042173;28;20424;-71
2022/02/27 12:15:28;;;;;;;5.77;4.17;;;18.50;42.20;;;;;;5030297;28;20841;-72
2022/02/27 12:18:15;;;;;;;5.87;5.37;;;18.00;43.10;;;;;;5027928;28;20436;-72
2022/02/27 12:20:43;;;;;;;4.77;4.37;;;17.10;44.10;;;;;;5036640;28;20428;-69
2022/02/27 12:23:27;;;;;;;4.53;4.23;;;18.10;43.20;;;;;;5037926;28;20457;-71
2022/02/27 12:25:53;;;;;;;5.53;5.00;;;18.10;41.20;;;;;;5037209;28;20436;-70
2022/02/27 12:28:44;;;;;;;5.43;4.93;;;17.90;41.90;;;;;;5037303;28;20528;-71
2022/02/27 12:31:10;;;;;;;4.90;4.50;;;18.20;42.70;;;;;;5034547;28;20209;-70
2022/02/27 12:33:36;;;;;;;5.23;4.83;;;19.00;42.40;;;;;;5038147;28;20510;-70
2022/02/27 12:36:02;;;;;;;6.53;5.53;;;19.10;42.10;;;;;;5039992;28;20424;-71
2022/02/27 12:38:28;;;;;;;6.17;5.37;;;18.90;41.20;;;;;;5037469;28;20441;-72
2022/02/27 12:41:02;;;;;;;6.43;5.77;;;18.30;42.40;;;;;;5037354;28;20693;-71
2022/02/27 12:43:28;;;;;;;4.63;4.27;;;18.40;42.50;;;;;;5045521;28;20509;-71
2022/02/27 12:45:53;;;;;;;5.50;4.90;;;17.70;42.40;;;;;;5041460;28;20432;-73
2022/02/27 12:48:22;;;;;;;5.23;4.83;;;17.90;43.40;;;;;;5038433;28;20188;-73
2022/02/27 12:50:50;;;;;;;5.50;5.00;;;18.40;42.30;;;;;;5038311;28;20567;-72